| time (UTC) | temp C | wind direction | speed KPH | gust KPH | rain 1hr cm | rain 24hr cm | rain mn cm | humidity % | barometer mb |
| 20260505152016 | 9 | 0.0 | 8.0 | 0.03 | 3.25 | 1.70 | 95 | 1008.8 | |
| 20260505151016 | 9 | 0.0 | 8.0 | 0.18 | 3.25 | 1.70 | 95 | 1008.4 | |
| 20260505125017 | 10 | 338 | 4.8 | 12.9 | 0.03 | 3.05 | 1.50 | 95 | 1008.8 |
| 20260505124017 | 10 | 315 | 1.6 | 9.7 | 0.03 | 3.05 | 1.50 | 95 | 1008.5 |
| 20260505123016 | 10 | 0.0 | 6.4 | 0.05 | 3.05 | 1.50 | 95 | 1007.7 | |
| 20260505122015 | 10 | 0.0 | 0.0 | 0.05 | 3.05 | 1.50 | 94 | 1007.4 | |
| 20260505121016 | 10 | 0.0 | 4.8 | 0.05 | 3.05 | 1.50 | 95 | 1007.3 | |
| 20260505120016 | 10 | 0.0 | 3.2 | 0.05 | 3.05 | 1.50 | 94 | 1007.0 | |
| 20260505115036 | 10 | 0.0 | 0.0 | 0.03 | 3.02 | 1.47 | 94 | 1006.9 | |
| 20260505114037 | 10 | 0.0 | 3.2 | 0.03 | 3.02 | 1.47 | 93 | 1008.1 | |
| 20260505113017 | 11 | 0.0 | 6.4 | 0.00 | 3.00 | 1.45 | 94 | 1008.1 | |
| 20260505112016 | 11 | 0.0 | 0.0 | 0.00 | 3.00 | 1.45 | 94 | 1008.2 | |
| 20260505111016 | 11 | 315 | 3.2 | 11.3 | 0.00 | 3.00 | 1.45 | 94 | 1007.7 |
| 20260505102036 | 12 | 0.0 | 0.0 | 0.00 | 3.00 | 1.45 | 95 | 1006.4 | |
| 20260505101016 | 13 | 0.0 | 0.0 | 0.00 | 3.00 | 1.45 | 95 | 1006.4 | |
| 20260505100015 | 13 | 0.0 | 0.0 | 0.00 | 3.00 | 1.45 | 95 | 1006.1 | |
| 20260505095015 | 13 | 0.0 | 1.6 | 0.00 | 3.00 | 1.45 | 95 | 1005.3 | |
| 20260505094016 | 13 | 0.0 | 0.0 | 0.00 | 3.00 | 1.45 | 95 | 1004.7 | |
| 20260505093016 | 13 | 0.0 | 3.2 | 0.00 | 3.00 | 1.45 | 95 | 1004.5 | |
| 20260505092016 | 13 | 0.0 | 0.0 | 0.00 | 3.00 | 1.45 | 95 | 1004.3 | |
| 20260505091035 | 13 | 0.0 | 0.0 | 0.00 | 3.00 | 1.45 | 95 | 1004.4 | |
| 20260505090015 | 13 | 0.0 | 0.0 | 0.00 | 3.00 | 1.45 | 95 | 1004.3 | |
| 20260505085016 | 13 | 0.0 | 0.0 | 0.00 | 3.00 | 1.45 | 94 | 1004.3 | |
| 20260505084015 | 13 | 0.0 | 0.0 | 0.00 | 3.00 | 1.45 | 94 | 1004.3 | |
| 20260505083015 | 13 | 225 | 1.6 | 9.7 | 0.00 | 3.00 | 1.45 | 95 | 1004.7 |
| 20260505082016 | 13 | 225 | 4.8 | 12.9 | 0.00 | 3.00 | 1.45 | 95 | 1005.0 |
| 20260505081016 | 13 | 225 | 3.2 | 16.1 | 0.00 | 3.00 | 1.45 | 95 | 1005.3 |
| 20260505080015 | 13 | 203 | 3.2 | 11.3 | 0.00 | 3.00 | 1.45 | 95 | 1004.8 |
| 20260505075016 | 13 | 225 | 1.6 | 9.7 | 0.00 | 3.00 | 1.45 | 94 | 1004.6 |
| 20260505074016 | 13 | 180 | 3.2 | 9.7 | 0.00 | 3.00 | 1.45 | 95 | 1004.9 |
| 20260505073056 | 13 | 180 | 3.2 | 9.7 | 0.00 | 3.00 | 1.45 | 94 | 1005.3 |
| 20260505072036 | 13 | 225 | 3.2 | 12.9 | 0.00 | 3.00 | 1.45 | 94 | 1005.5 |
| 20260505071037 | 13 | 225 | 1.6 | 9.7 | 0.00 | 3.00 | 1.45 | 94 | 1005.4 |
| 20260505070016 | 13 | 203 | 1.6 | 8.0 | 0.10 | 3.00 | 1.45 | 93 | 1004.9 |
| 20260505065015 | 13 | 225 | 3.2 | 12.9 | 0.33 | 3.00 | 1.45 | 92 | 1004.7 |
| 20260505064016 | 13 | 225 | 4.8 | 16.1 | 0.74 | 3.00 | 1.45 | 93 | 1004.6 |
| 20260505063018 | 13 | 225 | 4.8 | 12.9 | 1.45 | 3.00 | 1.45 | 93 | 1004.5 |
| 20260505062038 | 13 | 248 | 6.4 | 24.1 | 1.45 | 3.00 | 1.45 | 93 | 1004.1 |
| 20260505061037 | 13 | 315 | 3.2 | 14.5 | 1.45 | 3.00 | 1.45 | 92 | 1004.1 |
| 20260505060015 | 13 | 203 | 6.4 | 24.1 | 1.35 | 2.90 | 1.35 | 90 | 1004.2 |
| 20260505055058 | 13 | 203 | 4.8 | 30.6 | 1.12 | 2.67 | 1.12 | 87 | 1004.7 |
| 20260505054038 | 15 | 315 | 3.2 | 11.3 | 0.71 | 2.26 | 0.71 | 81 | 1005.0 |
| 20260505053017 | 16 | 315 | 8.0 | 22.5 | 0.00 | 1.55 | 0.00 | 79 | 1004.7 |
| 20260505052017 | 17 | 338 | 6.4 | 22.5 | 0.00 | 1.55 | 0.00 | 76 | 1004.5 |
| 20260505051017 | 18 | 225 | 4.8 | 16.1 | 0.00 | 1.55 | 0.00 | 79 | 1002.5 |
| 20260505041016 | 16 | 225 | 4.8 | 17.7 | 0.43 | 1.57 | 1.55 | 90 | 1001.4 |
| 20260505040016 | 16 | 225 | 3.2 | 9.7 | 0.56 | 1.57 | 1.55 | 91 | 1001.3 |
| 20260505035017 | 16 | 225 | 4.8 | 20.9 | 0.71 | 1.57 | 1.55 | 91 | 1001.4 |
| 20260505034018 | 16 | 0.0 | 6.4 | 0.84 | 1.57 | 1.55 | 92 | 1001.6 | |
| 20260505033017 | 16 | 225 | 3.2 | 12.9 | 1.09 | 1.57 | 1.55 | 90 | 1002.0 |
| 20260505032017 | 16 | 203 | 1.6 | 14.5 | 1.22 | 1.40 | 1.37 | 89 | 1001.8 |
| 20260505031017 | 16 | 0.0 | 1.6 | 0.99 | 1.14 | 1.12 | 89 | 1001.7 | |
| 20260505030017 | 17 | 180 | 1.6 | 8.0 | 0.86 | 1.02 | 0.99 | 86 | 1001.6 |
| 20260505025017 | 17 | 180 | 4.8 | 16.1 | 0.71 | 0.86 | 0.84 | 84 | 1001.9 |
| 20260505024017 | 17 | 180 | 4.8 | 8.0 | 0.58 | 0.74 | 0.71 | 81 | 1001.7 |
| 20260505023017 | 19 | 203 | 6.4 | 17.7 | 0.33 | 0.48 | 0.46 | 74 | 1001.8 |
| 20260505022017 | 21 | 180 | 4.8 | 24.1 | 0.03 | 0.18 | 0.15 | 67 | 1001.4 |
| 20260505021017 | 21 | 203 | 8.0 | 27.4 | 0.00 | 0.15 | 0.13 | 60 | 1001.3 |
| 20260505020017 | 21 | 203 | 6.4 | 24.1 | 0.00 | 0.15 | 0.13 | 60 | 1001.2 |
| 20260505015017 | 21 | 225 | 6.4 | 17.7 | 0.00 | 0.15 | 0.13 | 60 | 1001.4 |
| 20260505014016 | 21 | 158 | 6.4 | 19.3 | 0.00 | 0.15 | 0.13 | 61 | 1001.3 |
| 20260505013017 | 21 | 203 | 6.4 | 19.3 | 0.00 | 0.15 | 0.13 | 61 | 1001.2 |
| 20260505012016 | 21 | 248 | 6.4 | 30.6 | 0.00 | 0.15 | 0.13 | 59 | 1001.4 |
| 20260505011016 | 21 | 203 | 6.4 | 27.4 | 0.00 | 0.15 | 0.13 | 56 | 1001.5 |
| 20260505010036 | 22 | 203 | 4.8 | 20.9 | 0.00 | 0.15 | 0.13 | 55 | 1001.3 |
| 20260505005017 | 22 | 203 | 4.8 | 29.0 | 0.00 | 0.15 | 0.13 | 56 | 1001.4 |
| 20260505004017 | 22 | 203 | 4.8 | 20.9 | 0.00 | 0.15 | 0.13 | 54 | 1001.3 |
| 20260505003017 | 22 | 180 | 6.4 | 22.5 | 0.00 | 0.15 | 0.13 | 54 | 1001.3 |
| 20260505002017 | 22 | 0 | 4.8 | 12.9 | 0.00 | 0.15 | 0.13 | 55 | 1001.2 |
| 20260505001017 | 22 | 203 | 4.8 | 22.5 | 0.00 | 0.15 | 0.13 | 54 | 1001.0 |
| 20260505000018 | 22 | 203 | 4.8 | 14.5 | 0.00 | 0.15 | 0.13 | 54 | 1000.9 |
| 20260504235016 | 22 | 180 | 4.8 | 19.3 | 0.00 | 0.15 | 0.13 | 53 | 1000.9 |
| 20260504234016 | 22 | 225 | 6.4 | 22.5 | 0.00 | 0.15 | 0.13 | 54 | 1001.2 |
| 20260504233016 | 22 | 225 | 4.8 | 12.9 | 0.00 | 0.15 | 0.13 | 53 | 1001.5 |
| 20260504232017 | 22 | 203 | 6.4 | 17.7 | 0.00 | 0.15 | 0.13 | 54 | 1001.7 |
| 20260504231016 | 23 | 225 | 4.8 | 16.1 | 0.00 | 0.15 | 0.13 | 53 | 1001.8 |
| 20260504230016 | 23 | 225 | 6.4 | 25.7 | 0.00 | 0.15 | 0.13 | 53 | 1001.9 |
| 20260504225017 | 23 | 203 | 4.8 | 12.9 | 0.00 | 0.15 | 0.13 | 53 | 1002.1 |
| 20260504224037 | 23 | 225 | 6.4 | 24.1 | 0.00 | 0.15 | 0.13 | 52 | 1002.2 |
| 20260504223037 | 23 | 203 | 6.4 | 24.1 | 0.00 | 0.15 | 0.13 | 52 | 1001.9 |
| 20260504222016 | 23 | 180 | 6.4 | 14.5 | 0.00 | 0.15 | 0.13 | 51 | 1001.8 |
| 20260504221037 | 23 | 203 | 6.4 | 29.0 | 0.00 | 0.15 | 0.13 | 52 | 1002.1 |
| 20260504220036 | 23 | 203 | 8.0 | 37.0 | 0.00 | 0.15 | 0.13 | 51 | 1002.3 |
| 20260504215017 | 23 | 225 | 6.4 | 20.9 | 0.00 | 0.15 | 0.13 | 52 | 1002.4 |
| 20260504214016 | 23 | 225 | 6.4 | 17.7 | 0.00 | 0.15 | 0.13 | 56 | 1002.3 |
| 20260504213016 | 23 | 225 | 8.0 | 30.6 | 0.00 | 0.15 | 0.13 | 54 | 1002.5 |
| 20260504212016 | 23 | 248 | 6.4 | 17.7 | 0.00 | 0.15 | 0.13 | 55 | 1002.7 |
| 20260504211017 | 23 | 203 | 6.4 | 20.9 | 0.00 | 0.15 | 0.13 | 56 | 1002.7 |
| 20260504210016 | 23 | 203 | 6.4 | 20.9 | 0.00 | 0.15 | 0.13 | 58 | 1003.1 |
| 20260504205017 | 23 | 225 | 8.0 | 32.2 | 0.00 | 0.15 | 0.13 | 56 | 1002.9 |
| 20260504204016 | 23 | 225 | 6.4 | 22.5 | 0.00 | 0.15 | 0.13 | 57 | 1003.0 |
| 20260504203016 | 22 | 203 | 6.4 | 33.8 | 0.00 | 0.15 | 0.13 | 59 | 1003.0 |
| 20260504202016 | 22 | 225 | 8.0 | 32.2 | 0.00 | 0.15 | 0.13 | 59 | 1003.2 |
| 20260504201017 | 22 | 203 | 6.4 | 16.1 | 0.00 | 0.15 | 0.13 | 60 | 1003.4 |
| 20260504200016 | 22 | 225 | 8.0 | 29.0 | 0.00 | 0.15 | 0.13 | 62 | 1003.7 |
| 20260504195016 | 22 | 225 | 8.0 | 30.6 | 0.00 | 0.15 | 0.13 | 62 | 1004.0 |
| 20260504194016 | 22 | 203 | 8.0 | 25.7 | 0.00 | 0.15 | 0.13 | 62 | 1004.4 |
| 20260504193017 | 22 | 203 | 6.4 | 12.9 | 0.00 | 0.15 | 0.13 | 65 | 1004.5 |
| 20260504192017 | 22 | 225 | 6.4 | 19.3 | 0.00 | 0.15 | 0.13 | 65 | 1004.6 |
| 20260504191016 | 22 | 225 | 6.4 | 17.7 | 0.00 | 0.15 | 0.13 | 62 | 1004.3 |
| 20260504190036 | 23 | 225 | 6.4 | 19.3 | 0.00 | 0.15 | 0.13 | 62 | 1004.3 |
| 20260504185017 | 23 | 225 | 4.8 | 16.1 | 0.00 | 0.15 | 0.13 | 62 | 1004.2 |
| 20260504184016 | 22 | 203 | 4.8 | 22.5 | 0.00 | 0.15 | 0.13 | 63 | 1004.3 |
| 20260504183016 | 22 | 203 | 6.4 | 12.9 | 0.00 | 0.15 | 0.13 | 64 | 1004.5 |
| 20260504182016 | 22 | 180 | 4.8 | 17.7 | 0.00 | 0.15 | 0.13 | 64 | 1004.3 |
| 20260504181016 | 22 | 203 | 8.0 | 19.3 | 0.00 | 0.15 | 0.13 | 66 | 1004.4 |
| 20260504180016 | 21 | 180 | 4.8 | 11.3 | 0.00 | 0.15 | 0.13 | 70 | 1004.3 |
| 20260504175017 | 20 | 203 | 4.8 | 12.9 | 0.00 | 0.15 | 0.13 | 75 | 1004.3 |
| 20260504174016 | 19 | 180 | 1.6 | 6.4 | 0.00 | 0.15 | 0.13 | 78 | 1004.4 |
| 20260504173016 | 18 | 225 | 4.8 | 9.7 | 0.00 | 0.15 | 0.13 | 79 | 1004.7 |
| 20260504172016 | 18 | 180 | 4.8 | 12.9 | 0.00 | 0.15 | 0.13 | 79 | 1004.4 |
| 20260504171017 | 18 | 203 | 4.8 | 9.7 | 0.00 | 0.15 | 0.13 | 81 | 1004.7 |